Ogden, UT (84401)

8:20 PM MDT on August 27, 2016 (GMT -0600)
Secrist Acres | | Change Station

Elev 4262 ft 41.23 °N, 112.05 °W | Updated 9 seconds ago

Clear
Clear
70.7 °F
Feels Like 77 °F
N
0.0
Wind Variable Wind from East

Today
High -- | Low -- °F
--% Chance of Precip.
Yesterday
High -- | Low -- °F
Precip. -- in
Pressure 29.85 in
Visibility 10.0 miles
Clouds Clear
Heat Index 77 °F
Dew Point 44 °F
Humidity 38%
Rainfall 0.00 in
Snow Depth Not available.
6:50 AM 8:07 PM
Waning Crescent, 19% visible
METAR KOGD 280153Z 19003KT 10SM CLR 26/M04 A3000 RMK AO2 SLP106 T02561039
Pressure 29.85 in
Visibility 10.0 miles
Clouds Clear
Heat Index 77 °F
Dew Point 44 °F
Humidity 38%
Rainfall 0.00 in
Snow Depth Not available.
6:50 AM 8:07 PM
Waning Crescent, 19% visible
METAR KOGD 280153Z 19003KT 10SM CLR 26/M04 A3000 RMK AO2 SLP106 T02561039

10-Day Weather Forecast

Almanac

Astronomy

Aug. 27, 2016 Rise Set
Actual Time
Civil Twilight
Nautical Twilight
Astronomical Twilight
Moon
Length of Visible Light
Length of Day
Tomorrow will be .
, % of the Moon is Illuminated

Today's Extremes

State Highs State Lows

Community

WunderPhotos

Upload Photos

1,935,493 photos uploaded!

WunderBlog® & News

Nearby

Air Quality

  Air Quality AQ Index Pollutant
Not available.

Snow Depth

Station Depth Elevation

Earthquake Activity

City Distance Mag. Time & Date
Minimum magnitude displayed is 2.5.

Coastal Water Temperatures

Place Temperature

Stations

Nearby Weather Stations

Station Location Temp. Windchill Dew Point Humidity Wind Precip. Elev Updated Type
                   

Watches & Warnings

There are currently no watches in effect.